Buffaloville, Indiana
Current Conditions -  °F | °C
As of 6:35 PM on Wednesday 26 Nov 2014 (Local Time) from KHNB Reporting Station
Few Clouds Few Clouds  
Wind Chill: 33°   Ceiling: Unl
Heat Index: 37°   Visibility: 10mi
Dew Point: 28°   Wind: 6mph
Humidity: 70%   Direction: 330°NNW
Pressure: 30.05"   Gusts: NA
Location:  38.0467°N, 86.9637°W
Report Text: KHNB 270035Z AUTO 33005KT 10SM FEW050 03/M02 A3005 RMK AO1
Loading
Personal Weather Stations






























Interactive Weather Map New forecast layout! Learn more

10-Day Weather Forecast

Advertisements
Track Severe Weather on mobile